createdAt,value
2022-11-05T00:00:41.356Z,53.22
2022-11-05T00:03:27.922Z,45.40
2022-11-05T00:06:13.910Z,53.47
2022-11-05T00:09:00.443Z,43.10
2022-11-05T00:11:46.584Z,49.92
2022-11-05T00:14:32.687Z,48.20
2022-11-05T00:17:00.067Z,41.78
2022-11-05T00:19:27.479Z,48.13
2022-11-05T00:22:13.481Z,47.45
2022-11-05T00:24:59.358Z,46.85
2022-11-05T00:27:26.804Z,51.97
2022-11-05T00:29:54.218Z,56.60
2022-11-05T00:32:23.517Z,47.83
2022-11-05T00:34:50.945Z,51.70
2022-11-05T00:37:18.324Z,51.83
2022-11-05T00:39:45.760Z,47.85
2022-11-05T00:42:31.624Z,42.97
2022-11-05T00:45:01.932Z,46.75
2022-11-05T00:47:49.050Z,54.58
2022-11-05T00:50:17.457Z,42.15
2022-11-05T00:52:57.010Z,45.38
2022-11-05T00:55:26.320Z,39.15
2022-11-05T00:57:54.056Z,50.13
2022-11-05T01:00:23.269Z,48.30
2022-11-05T01:02:50.797Z,45.17
2022-11-05T01:05:18.398Z,37.47
2022-11-05T01:07:45.835Z,39.15
2022-11-05T01:10:13.457Z,41.58
2022-11-05T01:12:40.858Z,33.92
2022-11-05T01:15:08.801Z,35.55
2022-11-05T01:17:36.258Z,40.80
2022-11-05T01:20:04.439Z,39.80
2022-11-05T01:22:31.811Z,35.47
2022-11-05T01:24:59.465Z,41.72
2022-11-05T01:27:26.977Z,32.17
2022-11-05T01:29:54.409Z,39.60
2022-11-05T01:32:22.075Z,34.75
2022-11-05T01:34:49.659Z,39.25
2022-11-05T01:37:17.187Z,39.08
2022-11-05T01:39:44.583Z,40.03
2022-11-05T01:42:15.800Z,35.65
2022-11-05T01:45:03.515Z,34.28
2022-11-05T01:47:44.820Z,42.80
2022-11-05T01:50:31.751Z,42.38
2022-11-05T01:53:25.238Z,38.75
2022-11-05T01:56:00.986Z,36.83
2022-11-05T01:58:34.069Z,37.63
2022-11-05T02:01:02.043Z,31.45
2022-11-05T02:03:29.722Z,35.63
2022-11-05T02:05:59.191Z,33.72
2022-11-05T02:08:57.748Z,37.88
2022-11-05T02:11:25.691Z,41.03
2022-11-05T02:13:53.099Z,38.63
2022-11-05T02:16:29.412Z,36.25
2022-11-05T02:19:07.525Z,40.38
2022-11-05T02:22:04.052Z,45.92
2022-11-05T02:24:59.442Z,38.92
2022-11-05T02:27:58.848Z,36.92
2022-11-05T02:30:32.228Z,47.08
2022-11-05T02:33:14.900Z,41.55
2022-11-05T02:35:54.511Z,38.72
2022-11-05T02:38:33.784Z,42.92
2022-11-05T02:41:30.642Z,35.67
2022-11-05T02:44:07.091Z,34.55
2022-11-05T02:46:47.611Z,41.05
2022-11-05T02:49:35.029Z,37.90
2022-11-05T02:52:06.917Z,39.03
2022-11-05T02:54:38.180Z,29.88
2022-11-05T02:57:05.672Z,33.88
2022-11-05T02:59:33.459Z,38.95
2022-11-05T03:02:02.904Z,32.50
2022-11-05T03:04:32.213Z,41.63
2022-11-05T03:07:26.395Z,38.05
2022-11-05T03:10:02.955Z,35.70
2022-11-05T03:12:59.636Z,38.30
2022-11-05T03:15:46.857Z,40.72
2022-11-05T03:18:26.595Z,45.67
2022-11-05T03:20:59.229Z,45.28
2022-11-05T03:23:52.899Z,39.35
2022-11-05T03:26:32.166Z,38.75
2022-11-05T03:29:02.812Z,45.17
2022-11-05T03:31:31.010Z,46.53
2022-11-05T03:33:59.726Z,42.20
2022-11-05T03:36:41.240Z,42.33
2022-11-05T03:39:12.235Z,37.10
2022-11-05T03:41:43.451Z,43.40
2022-11-05T03:44:13.189Z,36.67
2022-11-05T03:46:44.293Z,39.95
2022-11-05T03:49:17.571Z,36.40
2022-11-05T03:52:20.503Z,37.63
2022-11-05T03:57:21.467Z,37.85
2022-11-05T03:59:50.480Z,44.33
2022-11-05T04:02:24.078Z,42.50
2022-11-05T04:04:52.531Z,37.45
2022-11-05T04:07:39.036Z,36.60
2022-11-05T04:10:24.972Z,43.40
2022-11-05T04:13:11.234Z,47.25
2022-11-05T04:16:01.911Z,44.38
2022-11-05T04:18:29.431Z,41.67
2022-11-05T04:21:15.510Z,41.40
2022-11-05T04:24:01.405Z,43.15
2022-11-05T04:26:28.905Z,38.47
2022-11-05T04:29:14.905Z,42.78
2022-11-05T04:31:42.314Z,107.20
2022-11-05T04:34:09.719Z,92.28
2022-11-05T04:36:37.132Z,52.97
2022-11-05T04:39:04.597Z,57.78
2022-11-05T04:41:32.024Z,51.30
2022-11-05T04:43:59.416Z,49.25
2022-11-05T04:46:26.791Z,42.63
2022-11-05T04:48:54.319Z,41.15
2022-11-05T04:51:21.760Z,52.20
2022-11-05T04:53:49.185Z,44.15
2022-11-05T04:56:21.471Z,43.75
2022-11-05T04:58:48.999Z,42.10
2022-11-05T05:01:18.639Z,54.97
2022-11-05T05:03:50.639Z,45.95
2022-11-05T05:06:18.821Z,51.13
2022-11-05T05:08:50.418Z,51.05
2022-11-05T05:11:20.581Z,43.15
2022-11-05T05:13:48.763Z,47.25
2022-11-05T05:16:24.289Z,46.88
2022-11-05T05:18:52.301Z,46.05
2022-11-05T05:21:39.004Z,49.00
2022-11-05T05:24:09.593Z,39.08
2022-11-05T05:26:38.402Z,45.90
2022-11-05T05:29:06.811Z,46.78
2022-11-05T05:31:34.812Z,51.20
2022-11-05T05:34:02.363Z,38.80
2022-11-05T05:36:29.842Z,46.28
2022-11-05T05:38:57.300Z,38.63
2022-11-05T05:41:24.807Z,36.83
2022-11-05T05:43:52.206Z,45.58
2022-11-05T05:46:19.907Z,39.42
2022-11-05T05:48:51.493Z,41.00
2022-11-05T05:51:19.803Z,51.50
2022-11-05T05:53:47.286Z,38.65
2022-11-05T05:56:15.332Z,41.85
2022-11-05T05:58:42.745Z,47.65
2022-11-05T06:01:18.242Z,52.47
2022-11-05T06:03:46.210Z,35.50
2022-11-05T06:06:14.880Z,37.03
2022-11-05T06:08:42.687Z,36.03
2022-11-05T06:11:10.262Z,29.30
2022-11-05T06:13:37.769Z,25.25
2022-11-05T06:16:07.508Z,31.38
2022-11-05T06:18:35.318Z,26.98
2022-11-05T06:21:04.399Z,23.95
2022-11-05T06:23:32.630Z,34.50
2022-11-05T06:26:04.319Z,28.38
2022-11-05T06:28:31.890Z,28.80
2022-11-05T06:30:59.476Z,24.90
2022-11-05T06:33:27.146Z,18.55
2022-11-05T06:35:54.631Z,24.60
2022-11-05T06:38:22.265Z,20.02
2022-11-05T06:40:49.696Z,17.83
2022-11-05T06:43:17.111Z,21.38
2022-11-05T06:45:44.544Z,14.40
2022-11-05T06:48:12.002Z,15.75
2022-11-05T06:50:39.407Z,15.00
2022-11-05T06:53:06.799Z,21.80
2022-11-05T06:55:34.406Z,19.02
2022-11-05T06:58:02.005Z,26.88
2022-11-05T07:00:29.555Z,19.42
2022-11-05T07:03:04.183Z,16.00
2022-11-05T07:05:33.151Z,13.32
2022-11-05T07:08:00.616Z,12.02
2022-11-05T07:10:28.078Z,25.30
2022-11-05T07:12:55.617Z,19.15
2022-11-05T07:15:23.228Z,14.52
2022-11-05T07:17:50.731Z,10.98
2022-11-05T07:20:18.150Z,13.40
2022-11-05T07:22:45.572Z,10.23
2022-11-05T07:25:12.966Z,10.35
2022-11-05T07:27:40.456Z,21.58
2022-11-05T07:30:09.450Z,8.30
2022-11-05T07:32:38.575Z,9.48
2022-11-05T07:35:07.363Z,14.32
2022-11-05T07:37:48.518Z,8.93
2022-11-05T07:40:21.017Z,9.27
2022-11-05T07:42:56.791Z,6.72
2022-11-05T07:45:25.409Z,22.83
2022-11-05T07:47:57.829Z,18.88
2022-11-05T07:52:53.748Z,16.15
2022-11-05T07:55:21.213Z,10.23
2022-11-05T07:57:50.072Z,11.50
2022-11-05T08:00:21.697Z,15.05
2022-11-05T08:03:08.447Z,14.85
2022-11-05T08:05:38.244Z,10.00
2022-11-05T08:08:07.441Z,8.80
2022-11-05T08:10:35.556Z,20.45
2022-11-05T08:13:03.179Z,15.45
2022-11-05T08:15:30.735Z,8.60
2022-11-05T08:18:11.122Z,11.35
2022-11-05T08:20:39.205Z,13.65
2022-11-05T08:23:06.634Z,21.52
2022-11-05T08:25:34.323Z,21.88
2022-11-05T08:28:07.480Z,12.20
2022-11-05T08:30:35.424Z,15.85
2022-11-05T08:33:08.690Z,9.05
2022-11-05T08:35:37.345Z,7.32
2022-11-05T08:38:06.639Z,8.93
2022-11-05T08:40:35.400Z,16.20
2022-11-05T08:43:05.141Z,8.18
2022-11-05T08:45:33.580Z,11.13
2022-11-05T08:48:08.502Z,10.18
2022-11-05T08:50:37.109Z,21.17
2022-11-05T08:53:05.320Z,16.38
2022-11-05T08:55:32.813Z,16.63
2022-11-05T08:58:02.674Z,14.82
2022-11-05T09:00:32.568Z,13.40
2022-11-05T09:03:03.389Z,8.43
2022-11-05T09:05:31.756Z,15.70
2022-11-05T09:08:05.519Z,18.20
2022-11-05T09:10:35.653Z,19.55
2022-11-05T09:13:04.281Z,16.33
2022-11-05T09:15:32.293Z,14.63
2022-11-05T09:17:59.911Z,20.77
2022-11-05T09:20:27.602Z,20.00
2022-11-05T09:22:55.373Z,13.75
2022-11-05T09:25:22.999Z,19.20
2022-11-05T09:27:50.470Z,23.65
2022-11-05T09:30:17.922Z,13.93
2022-11-05T09:32:45.658Z,14.00
2022-11-05T09:35:13.016Z,18.40
2022-11-05T09:37:40.630Z,16.70
2022-11-05T09:40:08.410Z,16.77
2022-11-05T09:42:39.905Z,19.20
2022-11-05T09:45:15.839Z,25.70
2022-11-05T09:48:05.945Z,26.92
2022-11-05T09:50:37.080Z,26.35
2022-11-05T09:53:05.108Z,28.70
2022-11-05T09:55:37.002Z,20.83
2022-11-05T09:58:30.117Z,26.40
2022-11-05T10:00:58.279Z,31.25
2022-11-05T10:03:28.296Z,43.97
2022-11-05T10:06:07.648Z,38.15
2022-11-05T10:08:40.521Z,33.38
2022-11-05T10:11:13.923Z,33.55
2022-11-05T10:13:45.814Z,26.13
2022-11-05T10:16:35.526Z,31.75
2022-11-05T10:19:11.816Z,37.20
2022-11-05T10:22:04.997Z,33.60
2022-11-05T10:24:27.719Z,39.40
2022-11-05T10:26:55.743Z,36.55
2022-11-05T10:29:29.634Z,29.05
2022-11-05T10:32:01.809Z,35.85
2022-11-05T10:34:34.858Z,39.50
2022-11-05T10:37:02.729Z,42.03
2022-11-05T10:39:31.483Z,39.45
2022-11-05T10:42:23.478Z,41.47
2022-11-05T10:45:16.390Z,39.45
2022-11-05T10:47:53.069Z,50.97
2022-11-05T10:50:24.742Z,56.17
2022-11-05T10:52:52.250Z,42.03
2022-11-05T10:55:36.936Z,57.38
2022-11-05T10:58:18.259Z,54.55
2022-11-05T11:01:02.304Z,56.53
2022-11-05T11:03:39.018Z,47.15
2022-11-05T11:06:21.077Z,54.53
2022-11-05T11:08:49.941Z,47.83
2022-11-05T11:11:34.401Z,67.10
2022-11-05T11:14:14.151Z,60.70
2022-11-05T11:16:43.747Z,64.18
2022-11-05T11:19:20.455Z,55.00
2022-11-05T11:22:07.816Z,51.70
2022-11-05T11:24:41.016Z,53.58
2022-11-05T11:27:15.906Z,57.17
2022-11-05T11:29:49.395Z,56.42
2022-11-05T11:32:19.921Z,64.13
2022-11-05T11:34:51.046Z,43.33
2022-11-05T11:37:37.283Z,51.50
2022-11-05T11:40:13.149Z,46.40
2022-11-05T11:42:41.935Z,57.10
2022-11-05T11:45:18.160Z,41.20
2022-11-05T11:47:47.479Z,46.72
2022-11-05T11:50:41.257Z,42.70
2022-11-05T11:53:26.630Z,37.22
2022-11-05T11:56:09.592Z,43.38
2022-11-05T11:58:45.585Z,33.85
2022-11-05T12:01:18.206Z,40.70
2022-11-05T12:03:55.432Z,39.97
2022-11-05T12:06:29.346Z,41.72
2022-11-05T12:09:03.530Z,45.95
2022-11-05T12:11:47.955Z,46.85
2022-11-05T12:14:50.948Z,49.83
2022-11-05T12:17:18.338Z,38.22
2022-11-05T12:20:07.960Z,39.67
2022-11-05T12:22:50.548Z,36.15
2022-11-05T12:25:25.855Z,35.50
2022-11-05T12:28:10.408Z,41.60
2022-11-05T12:30:54.638Z,39.17
2022-11-05T12:34:02.486Z,37.08
2022-11-05T12:36:51.830Z,47.65
2022-11-05T12:39:22.210Z,38.67
2022-11-05T12:41:55.291Z,54.75
2022-11-05T12:44:22.787Z,48.53
2022-11-05T12:47:12.146Z,38.13
2022-11-05T12:49:46.484Z,44.25
2022-11-05T12:52:19.935Z,39.72
2022-11-05T12:55:09.559Z,42.10
2022-11-05T12:57:41.036Z,35.45
2022-11-05T13:00:18.992Z,39.77
2022-11-05T13:02:46.423Z,30.75
2022-11-05T13:05:18.266Z,34.97
2022-11-05T13:08:12.317Z,26.92
2022-11-05T13:10:44.511Z,31.40
2022-11-05T13:13:17.706Z,30.90
2022-11-05T13:15:52.206Z,36.38
2022-11-05T13:18:28.369Z,31.60
2022-11-05T13:20:56.610Z,34.85
2022-11-05T13:23:35.759Z,37.03
2022-11-05T13:26:07.982Z,40.28
2022-11-05T13:28:46.904Z,32.83
2022-11-05T13:31:18.988Z,38.90
2022-11-05T13:33:48.583Z,38.95
2022-11-05T13:36:44.780Z,37.42
2022-11-05T13:39:29.615Z,35.50
2022-11-05T13:42:28.046Z,42.08
2022-11-05T13:45:10.690Z,35.45
2022-11-05T13:47:47.284Z,45.58
2022-11-05T13:50:23.753Z,36.83
2022-11-05T13:53:14.413Z,42.88
2022-11-05T13:56:19.464Z,32.58
2022-11-05T13:59:10.092Z,37.13
2022-11-05T14:01:46.865Z,37.83
2022-11-05T14:04:36.089Z,37.72
2022-11-05T14:07:31.053Z,39.97
2022-11-05T14:10:06.137Z,27.98
2022-11-05T14:12:36.811Z,27.17
2022-11-05T14:15:20.707Z,25.35
2022-11-05T14:18:00.488Z,31.23
2022-11-05T14:20:30.687Z,33.70
2022-11-05T14:23:37.589Z,40.65
2022-11-05T14:26:20.326Z,23.15
2022-11-05T14:29:11.802Z,25.17
2022-11-05T14:34:44.691Z,29.00
2022-11-05T14:37:12.607Z,29.95
2022-11-05T14:39:40.539Z,27.52
2022-11-05T14:42:24.744Z,27.65
2022-11-05T14:45:13.562Z,28.20
2022-11-05T14:47:44.229Z,23.88
2022-11-05T14:50:18.606Z,27.13
2022-11-05T14:52:54.668Z,20.65
2022-11-05T14:55:26.972Z,25.27
2022-11-05T15:00:36.738Z,28.52
2022-11-05T15:03:29.967Z,23.73
2022-11-05T15:06:08.271Z,26.13
2022-11-05T15:08:56.364Z,22.92
2022-11-05T15:11:29.236Z,27.70
2022-11-05T15:13:56.743Z,23.02
2022-11-05T15:16:46.114Z,27.48
2022-11-05T15:19:25.069Z,25.00
2022-11-05T15:21:54.743Z,28.33
2022-11-05T15:24:22.912Z,30.70
2022-11-05T15:27:07.651Z,25.98
2022-11-05T15:29:35.556Z,25.30
2022-11-05T15:32:03.327Z,25.30
2022-11-05T15:34:33.345Z,25.67
2022-11-05T15:37:09.932Z,28.88
2022-11-05T15:39:43.058Z,31.10
2022-11-05T15:42:16.283Z,24.48
2022-11-05T15:44:49.229Z,24.05
2022-11-05T15:47:25.271Z,25.63
2022-11-05T15:49:57.253Z,28.05
2022-11-05T15:52:33.525Z,27.80
2022-11-05T15:55:13.352Z,26.70
2022-11-05T15:57:51.198Z,34.67
2022-11-05T16:00:25.709Z,29.95
2022-11-05T16:02:57.624Z,30.90
2022-11-05T16:05:31.837Z,28.15
2022-11-05T16:08:00.417Z,29.73
2022-11-05T16:10:33.988Z,25.80
2022-11-05T16:13:37.399Z,25.88
2022-11-05T16:16:14.234Z,30.25
2022-11-05T16:18:42.900Z,29.38
2022-11-05T16:21:17.951Z,31.38
2022-11-05T16:23:48.549Z,24.65
2022-11-05T16:29:34.628Z,28.13
2022-11-05T16:32:06.094Z,21.17
2022-11-05T16:34:36.576Z,29.30
2022-11-05T16:38:16.384Z,30.45
2022-11-05T16:40:55.001Z,22.33
2022-11-05T16:43:57.838Z,40.78
2022-11-05T16:49:33.885Z,26.10
2022-11-05T16:52:01.375Z,24.35
2022-11-05T16:54:28.708Z,27.83
2022-11-05T16:56:56.241Z,27.33
2022-11-05T16:59:23.635Z,27.65
2022-11-05T17:01:55.592Z,25.08
2022-11-05T17:04:23.454Z,29.33
2022-11-05T17:06:51.048Z,27.60
2022-11-05T17:09:18.498Z,29.20
2022-11-05T17:11:45.929Z,26.27
2022-11-05T17:14:14.329Z,26.95
2022-11-05T17:16:41.998Z,23.60
2022-11-05T17:19:17.426Z,32.33
2022-11-05T17:21:45.624Z,30.52
2022-11-05T17:24:13.571Z,26.40
2022-11-05T17:26:41.591Z,28.55
2022-11-05T17:29:09.626Z,27.33
2022-11-05T17:31:40.692Z,24.90
2022-11-05T17:34:09.872Z,24.33
2022-11-05T17:36:37.666Z,28.30
2022-11-05T17:39:05.394Z,31.60
2022-11-05T17:41:33.315Z,37.88
2022-11-05T17:44:01.278Z,25.45
2022-11-05T17:46:28.980Z,24.95
2022-11-05T17:48:57.276Z,26.60
2022-11-05T17:51:25.026Z,30.55
2022-11-05T17:53:53.017Z,23.58
2022-11-05T17:56:32.561Z,28.40
2022-11-05T17:59:02.839Z,29.77
2022-11-05T18:01:33.062Z,25.80
2022-11-05T18:04:07.204Z,19.17
2022-11-05T18:06:40.976Z,27.10
2022-11-05T18:09:09.962Z,28.30
2022-11-05T18:11:40.536Z,24.92
2022-11-05T18:14:08.654Z,19.60
2022-11-05T18:16:36.892Z,22.65
2022-11-05T18:19:05.184Z,25.88
2022-11-05T18:21:33.188Z,23.73
2022-11-05T18:24:05.819Z,21.92
2022-11-05T18:26:34.598Z,26.30
2022-11-05T18:29:05.055Z,23.25
2022-11-05T18:31:32.832Z,28.15
2022-11-05T18:34:01.021Z,19.70
2022-11-05T18:36:30.685Z,20.02
2022-11-05T18:39:00.646Z,26.35
2022-11-05T18:41:28.504Z,26.08
2022-11-05T18:44:00.709Z,22.92
2022-11-05T18:46:56.509Z,20.98
2022-11-05T18:49:17.538Z,22.63
2022-11-05T18:51:45.374Z,27.08
2022-11-05T18:54:13.179Z,19.38
2022-11-05T18:56:45.509Z,20.65
2022-11-05T18:59:35.784Z,19.00
2022-11-05T19:02:03.306Z,19.13
2022-11-05T19:04:31.205Z,22.88
2022-11-05T19:07:04.368Z,23.40
2022-11-05T19:09:37.849Z,19.42
2022-11-05T19:12:07.211Z,23.88
2022-11-05T19:14:35.569Z,23.48
2022-11-05T19:17:04.403Z,24.27
2022-11-05T19:19:32.420Z,21.80
2022-11-05T19:22:00.154Z,21.35
2022-11-05T19:24:27.983Z,21.00
2022-11-05T19:26:56.002Z,23.00
2022-11-05T19:29:23.952Z,25.23
2022-11-05T19:31:51.766Z,23.10
2022-11-05T19:34:20.782Z,24.92
2022-11-05T19:36:48.464Z,23.27
2022-11-05T19:39:16.129Z,26.48
2022-11-05T19:41:44.021Z,29.10
2022-11-05T19:44:11.900Z,25.80
2022-11-05T19:46:39.743Z,20.40
2022-11-05T19:49:07.310Z,26.50
2022-11-05T19:51:35.312Z,30.42
2022-11-05T19:54:04.128Z,23.50
2022-11-05T19:56:33.887Z,23.08
2022-11-05T19:59:03.432Z,20.77
2022-11-05T20:01:31.666Z,25.35
2022-11-05T20:04:02.560Z,24.77
2022-11-05T20:06:33.572Z,25.88
2022-11-05T20:09:21.005Z,30.58
2022-11-05T20:11:50.151Z,21.55
2022-11-05T20:14:18.069Z,23.95
2022-11-05T20:16:46.897Z,23.52
2022-11-05T20:19:17.647Z,23.92
2022-11-05T20:21:45.920Z,23.90
2022-11-05T20:24:20.561Z,21.90
2022-11-05T20:26:52.776Z,21.65
2022-11-05T20:29:21.301Z,18.83
2022-11-05T20:31:49.757Z,24.23
2022-11-05T20:34:17.527Z,23.88
2022-11-05T20:36:45.442Z,27.20
2022-11-05T20:39:13.322Z,26.60
2022-11-05T20:41:41.288Z,30.50
2022-11-05T20:44:09.192Z,24.17
2022-11-05T20:46:37.133Z,23.58
2022-11-05T20:49:05.043Z,28.65
2022-11-05T20:51:32.735Z,26.70
2022-11-05T20:54:01.371Z,29.10
2022-11-05T20:56:31.490Z,28.10
2022-11-05T20:59:00.600Z,24.00
2022-11-05T21:01:31.250Z,25.10
2022-11-05T21:04:00.020Z,29.42
2022-11-05T21:06:28.085Z,28.45
2022-11-05T21:08:56.209Z,18.35
2022-11-05T21:11:24.170Z,18.33
2022-11-05T21:13:52.199Z,19.65
2022-11-05T21:16:20.695Z,17.85
2022-11-05T21:18:48.824Z,24.55
2022-11-05T21:21:19.359Z,24.45
2022-11-05T21:23:47.873Z,20.30
2022-11-05T21:26:17.856Z,20.95
2022-11-05T21:28:46.052Z,20.77
2022-11-05T21:31:14.079Z,23.77
2022-11-05T21:33:42.354Z,19.48
2022-11-05T21:36:12.552Z,27.23
2022-11-05T21:38:43.611Z,23.67
2022-11-05T21:41:12.781Z,26.60
2022-11-05T21:43:41.834Z,30.55
2022-11-05T21:46:11.576Z,26.23
2022-11-05T21:48:39.986Z,23.17
2022-11-05T21:51:26.053Z,20.58
2022-11-05T21:54:12.302Z,15.88
2022-11-05T21:56:59.219Z,17.85
2022-11-05T21:59:45.337Z,20.17
2022-11-05T22:02:15.341Z,17.63
2022-11-05T22:04:48.980Z,21.73
2022-11-05T22:07:18.957Z,17.15
2022-11-05T22:09:46.867Z,19.98
2022-11-05T22:12:15.229Z,20.60
2022-11-05T22:14:42.929Z,17.65
2022-11-05T22:17:10.933Z,16.00
2022-11-05T22:19:38.839Z,20.10
2022-11-05T22:22:07.043Z,19.08
2022-11-05T22:24:35.729Z,16.50
2022-11-05T22:27:08.635Z,25.55
2022-11-05T22:29:37.254Z,16.42
2022-11-05T22:32:05.519Z,18.15
2022-11-05T22:34:33.398Z,21.15
2022-11-05T22:37:01.098Z,14.35
2022-11-05T22:39:28.890Z,16.73
2022-11-05T22:41:57.691Z,17.00
2022-11-05T22:44:26.591Z,15.40
2022-11-05T22:46:54.690Z,15.77
2022-11-05T22:49:22.258Z,20.63
2022-11-05T22:51:49.687Z,14.63
2022-11-05T22:54:17.615Z,22.50
2022-11-05T22:56:45.235Z,21.38
2022-11-05T22:59:15.278Z,27.92
2022-11-05T23:01:44.538Z,25.20
2022-11-05T23:04:13.278Z,22.58
2022-11-05T23:06:59.870Z,23.70
2022-11-05T23:09:48.871Z,19.80
2022-11-05T23:12:29.697Z,22.73
2022-11-05T23:14:58.858Z,16.33
2022-11-05T23:17:45.351Z,15.15
2022-11-05T23:20:40.058Z,13.80
2022-11-05T23:23:30.203Z,14.00
2022-11-05T23:25:58.803Z,16.60
2022-11-05T23:28:26.629Z,16.67
2022-11-05T23:31:12.615Z,14.50
2022-11-05T23:33:40.146Z,19.10
2022-11-05T23:36:31.073Z,16.15
2022-11-05T23:38:58.448Z,18.52
2022-11-05T23:41:44.287Z,22.98
2022-11-05T23:44:30.279Z,19.08
2022-11-05T23:47:16.195Z,18.88
2022-11-05T23:49:43.749Z,20.17
2022-11-05T23:52:11.178Z,18.60
2022-11-05T23:54:38.609Z,18.52
2022-11-05T23:57:05.989Z,23.02
2022-11-05T23:59:33.429Z,18.20
